createdAt,value
2018-12-07T00:00:23.090Z,40.44
2018-12-07T00:01:32.310Z,40.42
2018-12-07T00:02:41.953Z,40.32
2018-12-07T00:03:50.729Z,40.22
2018-12-07T00:05:00.428Z,40.32
2018-12-07T00:06:10.669Z,40.32
2018-12-07T00:07:19.966Z,40.22
2018-12-07T00:08:29.661Z,40.7
2018-12-07T00:09:39.931Z,40.7
2018-12-07T00:10:49.609Z,40.61
2018-12-07T00:11:59.315Z,40.32
2018-12-07T00:13:08.746Z,40.32
2018-12-07T00:14:18.431Z,40.22
2018-12-07T00:15:28.371Z,40.42
2018-12-07T00:16:37.980Z,40.12
2018-12-07T00:17:46.906Z,40.42
2018-12-07T00:18:56.415Z,40.8
2018-12-07T00:20:05.820Z,40.61
2018-12-07T00:21:15.505Z,40.7
2018-12-07T00:22:25.197Z,40.7
2018-12-07T00:23:34.915Z,40.32
2018-12-07T00:24:43.847Z,40.42
2018-12-07T00:25:53.036Z,40.61
2018-12-07T00:27:02.723Z,40.7
2018-12-07T00:28:11.900Z,40.32
2018-12-07T00:29:21.090Z,40.61
2018-12-07T00:30:30.537Z,40.61
2018-12-07T00:31:39.729Z,40.7
2018-12-07T00:32:49.190Z,40.61
2018-12-07T00:33:58.617Z,40.61
2018-12-07T00:35:08.577Z,40.7
2018-12-07T00:36:17.762Z,40.61
2018-12-07T00:37:26.938Z,40.8
2018-12-07T00:38:36.127Z,40.7
2018-12-07T00:39:45.575Z,40.7
2018-12-07T00:40:54.505Z,40.7
2018-12-07T00:42:03.704Z,40.8
2018-12-07T00:43:12.664Z,40.7
2018-12-07T00:44:21.839Z,40.8
2018-12-07T00:45:30.519Z,40.8
2018-12-07T00:46:39.466Z,40.8
2018-12-07T00:47:48.918Z,40.8
2018-12-07T00:48:58.110Z,40.51
2018-12-07T00:50:07.306Z,40.7
2018-12-07T00:51:16.519Z,40.61
2018-12-07T00:52:26.209Z,40.42
2018-12-07T00:53:35.914Z,40.8
2018-12-07T00:54:45.350Z,40.51
2018-12-07T00:55:54.772Z,40.51
2018-12-07T00:57:04.204Z,40.51
2018-12-07T00:58:13.128Z,40.51
2018-12-07T00:59:22.549Z,40.51
2018-12-07T01:00:31.726Z,40.51
2018-12-07T01:01:40.899Z,40.61
2018-12-07T01:02:50.573Z,40.51
2018-12-07T01:03:59.769Z,40.51
2018-12-07T01:05:09.223Z,40.61
2018-12-07T01:06:18.418Z,40.7
2018-12-07T01:07:28.100Z,40.51
2018-12-07T01:08:37.537Z,40.7
2018-12-07T01:09:47.231Z,40.61
2018-12-07T01:10:56.409Z,40.51
2018-12-07T01:12:05.338Z,40.61
2018-12-07T01:13:15.015Z,40.61
2018-12-07T01:14:24.444Z,40.51
2018-12-07T01:15:33.868Z,40.61
2018-12-07T01:16:42.548Z,40.51
2018-12-07T01:17:51.740Z,40.61
2018-12-07T01:19:00.923Z,40.61
2018-12-07T01:20:10.352Z,40.7
2018-12-07T01:21:19.779Z,40.8
2018-12-07T01:22:29.205Z,40.7
2018-12-07T01:23:38.395Z,40.7
2018-12-07T01:24:47.850Z,40.7
2018-12-07T01:25:57.286Z,40.8
2018-12-07T01:27:06.747Z,40.7
2018-12-07T01:28:16.425Z,40.61
2018-12-07T01:29:25.883Z,40.61
2018-12-07T01:30:35.320Z,40.61
2018-12-07T01:31:45.039Z,40.7
2018-12-07T01:32:54.220Z,40.7
2018-12-07T01:34:03.422Z,40.51
2018-12-07T01:35:12.860Z,40.7
2018-12-07T01:36:21.785Z,40.7
2018-12-07T01:37:31.225Z,40.7
2018-12-07T01:38:40.685Z,40.61
2018-12-07T01:39:50.116Z,40.61
2018-12-07T01:40:59.073Z,40.61
2018-12-07T01:42:08.504Z,40.61
2018-12-07T01:43:17.437Z,40.61
2018-12-07T01:44:27.205Z,40.61
2018-12-07T01:45:36.435Z,40.7
2018-12-07T01:46:45.614Z,40.61
2018-12-07T01:47:54.816Z,40.7
2018-12-07T01:49:04.110Z,40.61
2018-12-07T01:50:13.041Z,40.61
2018-12-07T01:51:22.752Z,40.61
2018-12-07T01:52:32.181Z,40.51
2018-12-07T01:53:41.856Z,40.42
2018-12-07T01:54:50.776Z,40.61
2018-12-07T01:56:00.208Z,40.51
2018-12-07T01:57:09.644Z,40.61
2018-12-07T01:58:18.824Z,40.51
2018-12-07T01:59:28.261Z,40.7
2018-12-07T02:00:38.195Z,40.61
2018-12-07T02:01:47.646Z,40.61
2018-12-07T02:02:56.823Z,40.61
2018-12-07T02:04:06.001Z,40.8
2018-12-07T02:05:15.674Z,40.7
2018-12-07T02:06:24.847Z,40.8
2018-12-07T02:07:34.521Z,40.8
2018-12-07T02:08:43.695Z,40.9
2018-12-07T02:09:53.373Z,40.8
2018-12-07T02:11:02.550Z,40.7
2018-12-07T02:12:12.236Z,40.7
2018-12-07T02:13:21.405Z,40.8
2018-12-07T02:14:30.840Z,40.7
2018-12-07T02:15:40.015Z,40.61
2018-12-07T02:16:49.678Z,40.7
2018-12-07T02:17:58.870Z,40.7
2018-12-07T02:19:08.332Z,40.51
2018-12-07T02:20:18.025Z,40.51
2018-12-07T02:21:27.215Z,40.7
2018-12-07T02:22:36.409Z,40.59
2018-12-07T02:23:45.832Z,40.8
2018-12-07T02:24:54.789Z,40.8
2018-12-07T02:26:04.465Z,40.8
2018-12-07T02:27:13.903Z,40.61
2018-12-07T02:28:22.836Z,40.61
2018-12-07T02:29:32.559Z,40.51
2018-12-07T02:30:41.739Z,40.9
2018-12-07T02:31:51.197Z,40.88
2018-12-07T02:33:01.116Z,40.69
2018-12-07T02:34:10.546Z,40.7
2018-12-07T02:35:19.725Z,40.9
2018-12-07T02:36:29.419Z,40.99
2018-12-07T02:37:38.956Z,40.78
2018-12-07T02:38:48.434Z,40.9
2018-12-07T02:39:57.627Z,40.88
2018-12-07T02:41:07.568Z,40.78
2018-12-07T02:42:16.790Z,40.78
2018-12-07T02:43:26.086Z,40.97
2018-12-07T02:44:35.539Z,40.8
2018-12-07T02:45:45.464Z,40.78
2018-12-07T02:46:54.637Z,40.78
2018-12-07T02:48:04.078Z,40.97
2018-12-07T02:49:13.515Z,40.97
2018-12-07T02:50:23.195Z,40.97
2018-12-07T02:51:32.620Z,41.07
2018-12-07T02:52:42.300Z,40.97
2018-12-07T02:53:51.754Z,40.97
2018-12-07T02:55:01.200Z,40.88
2018-12-07T02:56:10.389Z,40.88
2018-12-07T02:57:20.084Z,40.88
2018-12-07T02:58:29.265Z,40.88
2018-12-07T02:59:38.458Z,40.88
2018-12-07T03:00:47.637Z,40.88
2018-12-07T03:01:57.091Z,40.88
2018-12-07T03:03:06.772Z,40.88
2018-12-07T03:04:16.199Z,40.88
2018-12-07T03:05:25.634Z,40.97
2018-12-07T03:06:35.321Z,40.88
2018-12-07T03:07:44.765Z,40.97
2018-12-07T03:08:54.447Z,40.78
2018-12-07T03:10:04.131Z,40.88
2018-12-07T03:11:13.566Z,41.07
2018-12-07T03:12:23.246Z,40.78
2018-12-07T03:13:32.422Z,40.88
2018-12-07T03:14:41.848Z,40.88
2018-12-07T03:15:51.308Z,40.99
2018-12-07T03:17:01.013Z,41.07
2018-12-07T03:18:10.742Z,41.09
2018-12-07T03:19:20.173Z,41.07
2018-12-07T03:20:29.356Z,41.17
2018-12-07T03:21:38.791Z,41.07
2018-12-07T03:22:48.475Z,41.07
2018-12-07T03:23:58.164Z,40.97
2018-12-07T03:25:07.661Z,40.97
2018-12-07T03:26:17.368Z,41.07
2018-12-07T03:27:27.307Z,41.07
2018-12-07T03:28:36.505Z,41.07
2018-12-07T03:29:45.698Z,41.17
2018-12-07T03:30:54.907Z,41.07
2018-12-07T03:32:04.912Z,41.07
2018-12-07T03:33:14.857Z,41.07
2018-12-07T03:34:24.836Z,41.17
2018-12-07T03:35:34.315Z,41.17
2018-12-07T03:36:43.990Z,41.07
2018-12-07T03:37:53.943Z,41.27
2018-12-07T03:39:03.360Z,41.17
2018-12-07T03:40:12.815Z,41.17
2018-12-07T03:41:22.236Z,41.27
2018-12-07T03:42:31.767Z,41.27
2018-12-07T03:43:41.459Z,41.27
2018-12-07T03:44:51.386Z,41.07
2018-12-07T03:46:00.577Z,41.27
2018-12-07T03:47:10.027Z,41.07
2018-12-07T03:48:19.220Z,41.27
2018-12-07T03:49:28.891Z,41.17
2018-12-07T03:50:38.567Z,41.17
2018-12-07T03:51:47.752Z,41.17
2018-12-07T03:52:57.479Z,41.27
2018-12-07T03:54:07.410Z,41.27
2018-12-07T03:55:17.298Z,41.17
2018-12-07T03:56:26.784Z,41.36
2018-12-07T03:57:36.475Z,41.17
2018-12-07T03:58:46.157Z,41.17
2018-12-07T03:59:55.639Z,41.46
2018-12-07T04:01:05.362Z,41.17
2018-12-07T04:02:14.555Z,41.36
2018-12-07T04:03:23.984Z,41.36
2018-12-07T04:04:33.668Z,41.17
2018-12-07T04:05:42.616Z,41.17
2018-12-07T04:06:52.314Z,41.46
2018-12-07T04:08:01.493Z,41.46
2018-12-07T04:09:11.182Z,41.17
2018-12-07T04:10:20.353Z,41.36
2018-12-07T04:11:30.045Z,41.27
2018-12-07T04:12:39.234Z,41.27
2018-12-07T04:13:48.797Z,41.17
2018-12-07T04:14:58.493Z,41.46
2018-12-07T04:16:07.439Z,41.36
2018-12-07T04:17:16.890Z,41.27
2018-12-07T04:18:26.315Z,41.36
2018-12-07T04:19:35.546Z,41.36
2018-12-07T04:20:44.752Z,41.36
2018-12-07T04:21:54.182Z,41.46
2018-12-07T04:23:03.624Z,41.17
2018-12-07T04:24:12.804Z,41.36
2018-12-07T04:25:21.728Z,41.46
2018-12-07T04:26:31.156Z,41.17
2018-12-07T04:27:41.114Z,41.55
2018-12-07T04:28:50.317Z,41.36
2018-12-07T04:30:00.018Z,41.55
2018-12-07T04:31:09.710Z,41.55
2018-12-07T04:32:19.421Z,41.55
2018-12-07T04:33:29.097Z,41.94
2018-12-07T04:34:38.793Z,41.55
2018-12-07T04:35:48.235Z,41.75
2018-12-07T04:36:57.446Z,41.94
2018-12-07T04:38:07.373Z,41.94
2018-12-07T04:39:16.825Z,41.65
2018-12-07T04:40:26.274Z,41.65
2018-12-07T04:41:36.034Z,41.55
2018-12-07T04:42:45.500Z,41.94
2018-12-07T04:43:54.973Z,41.84
2018-12-07T04:45:04.449Z,41.75
2018-12-07T04:46:14.160Z,41.75
2018-12-07T04:47:24.098Z,41.84
2018-12-07T04:48:34.037Z,41.75
2018-12-07T04:49:43.717Z,41.75
2018-12-07T04:50:53.665Z,41.75
2018-12-07T04:52:02.653Z,41.75
2018-12-07T04:53:11.699Z,41.75
2018-12-07T04:54:21.670Z,41.84
2018-12-07T04:55:31.110Z,41.65
2018-12-07T04:56:40.827Z,41.65
2018-12-07T04:57:50.022Z,41.65
2018-12-07T04:58:59.468Z,41.84
2018-12-07T05:00:09.168Z,41.65
2018-12-07T05:01:18.615Z,41.65
2018-12-07T05:02:28.048Z,41.65
2018-12-07T05:03:37.502Z,41.65
2018-12-07T05:04:46.948Z,41.65
2018-12-07T05:05:56.645Z,41.65
2018-12-07T05:07:06.328Z,41.65
2018-12-07T05:08:16.011Z,41.65
2018-12-07T05:09:25.704Z,41.75
2018-12-07T05:10:35.154Z,41.75
2018-12-07T05:11:44.091Z,41.65
2018-12-07T05:12:53.534Z,41.65
2018-12-07T05:14:03.232Z,41.65
2018-12-07T05:15:12.672Z,41.65
2018-12-07T05:16:22.377Z,41.65
2018-12-07T05:17:32.072Z,41.65
2018-12-07T05:18:41.287Z,41.75
2018-12-07T05:19:50.980Z,41.55
2018-12-07T05:21:00.945Z,41.65
2018-12-07T05:22:10.433Z,41.55
2018-12-07T05:23:19.860Z,41.55
2018-12-07T05:24:29.033Z,41.55
2018-12-07T05:25:39.689Z,41.55
2018-12-07T05:26:49.374Z,41.55
2018-12-07T05:27:58.818Z,41.55
2018-12-07T05:29:08.742Z,41.84
2018-12-07T05:30:18.423Z,41.84
2018-12-07T05:31:28.119Z,41.65
2018-12-07T05:32:37.295Z,41.75
2018-12-07T05:33:46.977Z,41.84
2018-12-07T05:34:56.665Z,41.65
2018-12-07T05:36:06.126Z,41.94
2018-12-07T05:37:15.838Z,41.84
2018-12-07T05:38:25.031Z,41.94
2018-12-07T05:39:34.212Z,41.65
2018-12-07T05:40:43.635Z,41.46
2018-12-07T05:41:53.059Z,41.94
2018-12-07T05:43:02.496Z,41.94
2018-12-07T05:44:12.170Z,41.94
2018-12-07T05:45:22.204Z,42.03
2018-12-07T05:46:32.144Z,42.03
2018-12-07T05:47:41.856Z,41.94
2018-12-07T05:48:51.273Z,41.65
2018-12-07T05:50:00.964Z,41.94
2018-12-07T05:51:09.899Z,42.03
2018-12-07T05:52:19.086Z,41.65
2018-12-07T05:53:28.758Z,41.65
2018-12-07T05:54:38.512Z,41.75
2018-12-07T05:55:48.443Z,41.84
2018-12-07T05:56:57.616Z,41.75
2018-12-07T05:58:07.325Z,41.65
2018-12-07T05:59:17.248Z,41.75
2018-12-07T06:00:26.843Z,41.75
2018-12-07T06:01:36.793Z,41.84
2018-12-07T06:02:46.473Z,41.75
2018-12-07T06:03:55.403Z,41.75
2018-12-07T06:05:04.841Z,41.84
2018-12-07T06:06:13.759Z,41.65
2018-12-07T06:07:22.701Z,41.94
2018-12-07T06:08:32.390Z,41.75
2018-12-07T06:09:41.638Z,41.94
2018-12-07T06:10:51.567Z,41.75
2018-12-07T06:12:00.994Z,41.94
2018-12-07T06:13:10.428Z,41.65
2018-12-07T06:14:19.624Z,41.84
2018-12-07T06:15:29.556Z,41.75
2018-12-07T06:16:39.244Z,41.84
2018-12-07T06:17:48.415Z,41.84
2018-12-07T06:18:58.077Z,41.84
2018-12-07T06:20:07.520Z,41.65
2018-12-07T06:21:16.710Z,41.65
2018-12-07T06:22:25.877Z,41.84
2018-12-07T06:23:34.807Z,41.84
2018-12-07T06:24:43.974Z,41.75
2018-12-07T06:25:52.929Z,41.84
2018-12-07T06:27:02.113Z,41.84
2018-12-07T06:28:13.656Z,41.75
2018-12-07T06:29:23.325Z,41.65
2018-12-07T06:30:32.775Z,41.75
2018-12-07T06:31:42.219Z,41.94
2018-12-07T06:32:51.697Z,41.94
2018-12-07T06:34:01.346Z,41.75
2018-12-07T06:35:11.050Z,41.84
2018-12-07T06:36:19.980Z,41.75
2018-12-07T06:37:29.664Z,41.75
2018-12-07T06:38:38.834Z,41.94
2018-12-07T06:39:47.999Z,41.94
2018-12-07T06:40:57.169Z,41.94
2018-12-07T06:42:06.103Z,41.94
2018-12-07T06:43:15.534Z,41.84
2018-12-07T06:44:24.982Z,42.23
2018-12-07T06:45:35.255Z,41.75
2018-12-07T06:46:44.808Z,41.75
2018-12-07T06:47:54.008Z,42.03
2018-12-07T06:49:03.459Z,42.13
2018-12-07T06:50:13.169Z,42.03
2018-12-07T06:51:22.862Z,42.23
2018-12-07T06:52:32.650Z,42.03
2018-12-07T06:53:41.823Z,41.94
2018-12-07T06:54:51.501Z,41.94
2018-12-07T06:56:00.930Z,42.13
2018-12-07T06:57:10.383Z,42.13
2018-12-07T06:58:19.840Z,41.84
2018-12-07T06:59:29.751Z,41.94
2018-12-07T07:00:39.706Z,41.94
2018-12-07T07:01:48.640Z,42.13
2018-12-07T07:02:58.362Z,42.13
2018-12-07T07:04:07.804Z,42.03
2018-12-07T07:05:17.300Z,42.23
2018-12-07T07:06:26.962Z,42.03
2018-12-07T07:07:36.385Z,41.94
2018-12-07T07:08:45.817Z,42.03
2018-12-07T07:09:55.241Z,41.84
2018-12-07T07:11:04.431Z,41.84
2018-12-07T07:12:13.630Z,41.94
2018-12-07T07:13:22.551Z,41.94
2018-12-07T07:14:32.231Z,42.03
2018-12-07T07:15:41.667Z,41.94
2018-12-07T07:16:50.868Z,41.94
2018-12-07T07:18:00.055Z,42.13
2018-12-07T07:19:09.231Z,42.23
2018-12-07T07:20:18.922Z,42.03
2018-12-07T07:21:28.623Z,42.03
2018-12-07T07:22:37.562Z,42.13
2018-12-07T07:23:46.752Z,42.32
2018-12-07T07:24:55.941Z,42.32
2018-12-07T07:26:05.119Z,42.23
2018-12-07T07:27:14.333Z,42.32
2018-12-07T07:28:23.774Z,42.32
2018-12-07T07:29:33.477Z,42.32
2018-12-07T07:30:42.668Z,42.32
2018-12-07T07:31:51.866Z,42.23
2018-12-07T07:33:01.537Z,41.94
2018-12-07T07:34:10.739Z,42.32
2018-12-07T07:35:20.187Z,41.94
2018-12-07T07:36:29.388Z,41.94
2018-12-07T07:37:38.578Z,42.03
2018-12-07T07:38:47.527Z,42.13
2018-12-07T07:39:56.713Z,42.13
2018-12-07T07:41:05.926Z,41.94
2018-12-07T07:42:15.137Z,42.23
2018-12-07T07:43:24.107Z,42.23
2018-12-07T07:44:33.313Z,42.42
2018-12-07T07:45:43.006Z,42.23
2018-12-07T07:46:52.975Z,42.23
2018-12-07T07:48:01.927Z,42.32
2018-12-07T07:49:11.122Z,42.32
2018-12-07T07:50:20.360Z,42.32
2018-12-07T07:51:29.800Z,42.42
2018-12-07T07:52:39.228Z,42.42
2018-12-07T07:53:48.905Z,42.23
2018-12-07T07:54:58.110Z,42.42
2018-12-07T07:56:07.052Z,42.32
2018-12-07T07:57:23.080Z,42.42
2018-12-07T07:58:32.779Z,42.42
2018-12-07T07:59:41.954Z,42.32
2018-12-07T08:00:51.409Z,42.23
2018-12-07T08:02:00.863Z,42.42
2018-12-07T08:03:10.076Z,42.13
2018-12-07T08:04:19.534Z,42.23
2018-12-07T08:05:28.218Z,42.32
2018-12-07T08:06:38.177Z,42.32
2018-12-07T08:07:47.859Z,42.23
2018-12-07T08:08:58.267Z,42.23
2018-12-07T08:10:08.193Z,42.32
2018-12-07T08:11:17.628Z,42.32
2018-12-07T08:12:26.834Z,42.32
2018-12-07T08:13:36.052Z,42.32
2018-12-07T08:14:45.493Z,42.32
2018-12-07T08:15:54.677Z,42.32
2018-12-07T08:17:03.859Z,42.52
2018-12-07T08:18:13.523Z,42.52
2018-12-07T08:19:23.234Z,42.52
2018-12-07T08:20:32.932Z,42.61
2018-12-07T08:21:41.607Z,42.52
2018-12-07T08:22:51.069Z,42.52
2018-12-07T08:24:00.767Z,42.42
2018-12-07T08:25:09.947Z,42.52
2018-12-07T08:26:19.131Z,42.52
2018-12-07T08:27:28.823Z,42.42
2018-12-07T08:28:38.263Z,42.52
2018-12-07T08:29:47.967Z,42.52
2018-12-07T08:30:57.400Z,42.52
2018-12-07T08:32:06.327Z,42.42
2018-12-07T08:33:15.744Z,42.32
2018-12-07T08:34:24.946Z,42.52
2018-12-07T08:35:34.662Z,42.52
2018-12-07T08:36:43.629Z,42.61
2018-12-07T08:37:53.318Z,42.42
2018-12-07T08:39:02.752Z,42.52
2018-12-07T08:40:11.978Z,42.42
2018-12-07T08:41:21.209Z,42.52
2018-12-07T08:42:30.657Z,42.52
2018-12-07T08:43:39.855Z,42.42
2018-12-07T08:44:49.792Z,42.42
2018-12-07T08:45:59.262Z,42.42
2018-12-07T08:47:08.717Z,42.52
2018-12-07T08:48:17.959Z,42.52
2018-12-07T08:49:27.152Z,42.42
2018-12-07T08:50:36.593Z,42.42
2018-12-07T08:51:46.283Z,42.23
2018-12-07T08:52:56.225Z,42.23
2018-12-07T08:54:05.417Z,42.23
2018-12-07T08:55:14.891Z,42.03
2018-12-07T08:56:24.333Z,42.32
2018-12-07T08:57:35.468Z,42.42
2018-12-07T08:58:44.669Z,42.42
2018-12-07T08:59:53.863Z,42.32
2018-12-07T09:01:03.300Z,42.23
2018-12-07T09:02:12.499Z,42.13
2018-12-07T09:03:21.736Z,42.32
2018-12-07T09:04:31.682Z,42.32
2018-12-07T09:05:41.135Z,42.23
2018-12-07T09:06:50.129Z,42.32
2018-12-07T09:07:59.315Z,42.32
2018-12-07T09:09:08.755Z,42.42
2018-12-07T09:10:18.208Z,42.32
2018-12-07T09:11:27.645Z,42.52
2018-12-07T09:12:37.095Z,42.61
2018-12-07T09:13:46.642Z,42.03
2018-12-07T09:14:56.633Z,42.13
2018-12-07T09:16:05.338Z,42.32
2018-12-07T09:17:14.564Z,42.23
2018-12-07T09:18:24.030Z,42.23
2018-12-07T09:19:32.991Z,42.52
2018-12-07T09:20:41.703Z,42.03
2018-12-07T09:21:59.222Z,42.23
2018-12-07T09:23:08.422Z,42.13
2018-12-07T09:24:17.872Z,42.23
2018-12-07T09:25:27.835Z,42.42
2018-12-07T09:26:37.514Z,42.52
2018-12-07T09:27:46.709Z,42.52
2018-12-07T09:28:56.145Z,42.23
2018-12-07T09:30:05.339Z,42.52
2018-12-07T09:31:15.145Z,42.32
2018-12-07T09:32:24.354Z,42.03
2018-12-07T09:33:34.050Z,42.23
2018-12-07T09:34:43.490Z,42.52
2018-12-07T09:35:53.193Z,42.42
2018-12-07T09:37:02.659Z,42.52
2018-12-07T09:38:15.674Z,42.23
2018-12-07T09:39:24.899Z,42.23
2018-12-07T09:40:34.100Z,42.42
2018-12-07T09:41:43.298Z,42.13
2018-12-07T09:42:52.520Z,42.52
2018-12-07T09:44:02.206Z,42.32
2018-12-07T09:45:11.910Z,42.32
2018-12-07T09:46:21.360Z,42.42
2018-12-07T09:47:30.854Z,42.32
2018-12-07T09:48:40.060Z,42.23
2018-12-07T09:49:49.256Z,42.23
2018-12-07T09:50:58.024Z,42.42
2018-12-07T09:52:06.718Z,42.23
2018-12-07T09:53:15.913Z,42.23
2018-12-07T09:54:25.438Z,42.32
2018-12-07T09:55:34.920Z,42.42
2018-12-07T09:56:44.125Z,42.52
2018-12-07T09:57:53.308Z,42.52
2018-12-07T09:59:02.488Z,42.32
2018-12-07T10:00:11.175Z,42.52
2018-12-07T10:01:21.481Z,42.42
2018-12-07T10:02:31.181Z,42.52
2018-12-07T10:03:40.617Z,42.23
2018-12-07T10:04:49.828Z,42.42
2018-12-07T10:05:59.260Z,42.52
2018-12-07T10:07:08.588Z,42.52
2018-12-07T10:08:17.769Z,42.42
2018-12-07T10:09:27.243Z,42.52
2018-12-07T10:10:36.693Z,42.52
2018-12-07T10:11:45.892Z,42.42
2018-12-07T10:12:55.333Z,42.52
2018-12-07T10:14:10.623Z,42.52
2018-12-07T10:15:20.047Z,42.32
2018-12-07T10:16:29.263Z,42.42
2018-12-07T10:17:38.236Z,42.52
2018-12-07T10:18:47.672Z,42.52
2018-12-07T10:19:57.394Z,42.42
2018-12-07T10:21:07.090Z,42.52
2018-12-07T10:22:16.538Z,42.42
2018-12-07T10:23:25.993Z,42.52
2018-12-07T10:24:35.952Z,42.52
2018-12-07T10:25:44.920Z,42.42
2018-12-07T10:26:54.118Z,42.52
2018-12-07T10:28:03.560Z,42.42
2018-12-07T10:29:12.762Z,42.52
2018-12-07T10:30:22.456Z,42.42
2018-12-07T10:31:31.889Z,42.61
2018-12-07T10:32:41.561Z,42.52
2018-12-07T10:33:50.511Z,42.52
2018-12-07T10:34:59.962Z,42.52
2018-12-07T10:36:08.927Z,42.52
2018-12-07T10:37:18.133Z,42.52
2018-12-07T10:38:27.330Z,42.52
2018-12-07T10:39:37.024Z,42.52
2018-12-07T10:40:46.485Z,42.61
2018-12-07T10:41:55.413Z,42.52
2018-12-07T10:43:04.743Z,42.52
2018-12-07T10:44:14.703Z,42.52
2018-12-07T10:45:23.891Z,42.52
2018-12-07T10:46:33.090Z,42.52
2018-12-07T10:47:42.295Z,42.61
2018-12-07T10:48:57.708Z,42.52
2018-12-07T10:50:06.692Z,42.61
2018-12-07T10:51:15.882Z,42.42
2018-12-07T10:52:25.325Z,42.52
2018-12-07T10:53:34.777Z,42.52
2018-12-07T10:54:43.727Z,42.42
2018-12-07T10:55:53.161Z,42.32
2018-12-07T10:57:02.847Z,42.52
2018-12-07T10:58:12.072Z,42.32
2018-12-07T10:59:21.267Z,42.32
2018-12-07T11:00:30.718Z,42.23
2018-12-07T11:01:40.155Z,42.32
2018-12-07T11:02:49.350Z,42.32
2018-12-07T11:03:58.783Z,42.61
2018-12-07T11:05:07.979Z,42.61
2018-12-07T11:06:17.156Z,42.61
2018-12-07T11:07:26.364Z,42.23
2018-12-07T11:08:35.856Z,42.32
2018-12-07T11:09:45.030Z,42.23
2018-12-07T11:10:54.725Z,42.32
2018-12-07T11:12:04.523Z,42.23
2018-12-07T11:13:13.470Z,42.32
2018-12-07T11:14:22.914Z,42.32
2018-12-07T11:15:32.370Z,42.13
2018-12-07T11:16:41.576Z,42.23
2018-12-07T11:17:51.014Z,42.32
2018-12-07T11:19:00.702Z,42.42
2018-12-07T11:20:10.393Z,42.32
2018-12-07T11:21:20.077Z,42.23
2018-12-07T11:22:29.528Z,42.61
2018-12-07T11:23:38.979Z,42.32
2018-12-07T11:24:48.497Z,42.32
2018-12-07T11:25:57.948Z,42.42
2018-12-07T11:27:07.134Z,42.42
2018-12-07T11:28:16.817Z,42.42
2018-12-07T11:29:25.752Z,42.42
2018-12-07T11:30:35.196Z,42.32
2018-12-07T11:31:44.399Z,42.32
2018-12-07T11:32:54.345Z,42.32
2018-12-07T11:34:03.291Z,42.42
2018-12-07T11:35:12.476Z,42.32
2018-12-07T11:36:21.666Z,42.32
2018-12-07T11:37:30.623Z,42.32
2018-12-07T11:38:40.060Z,42.23
2018-12-07T11:39:49.519Z,42.32
2018-12-07T11:40:58.700Z,42.23
2018-12-07T11:42:08.127Z,42.42
2018-12-07T11:43:17.551Z,42.32
2018-12-07T11:44:26.733Z,42.42
2018-12-07T11:45:36.706Z,42.42
2018-12-07T11:46:46.144Z,42.42
2018-12-07T11:47:55.595Z,42.42
2018-12-07T11:49:05.025Z,42.23
2018-12-07T11:50:14.298Z,42.42
2018-12-07T11:51:23.740Z,42.32
2018-12-07T11:52:33.172Z,42.42
2018-12-07T11:53:42.378Z,42.42
2018-12-07T11:54:51.312Z,42.32
2018-12-07T11:56:00.998Z,42.32
2018-12-07T11:57:10.429Z,42.32
2018-12-07T11:58:19.905Z,42.42
2018-12-07T11:59:29.125Z,42.32
2018-12-07T12:00:38.571Z,42.32
2018-12-07T12:01:48.029Z,42.32
2018-12-07T12:02:56.987Z,42.03
2018-12-07T12:04:06.190Z,42.23
2018-12-07T12:05:15.885Z,42.23
2018-12-07T12:06:25.077Z,42.32
2018-12-07T12:07:35.391Z,42.23
2018-12-07T12:08:44.580Z,41.94
2018-12-07T12:09:54.261Z,42.32
2018-12-07T12:11:03.255Z,42.23
2018-12-07T12:12:12.527Z,42.23
2018-12-07T12:13:21.715Z,41.94
2018-12-07T12:14:31.193Z,42.32
2018-12-07T12:15:40.132Z,42.23
2018-12-07T12:16:49.601Z,42.23
2018-12-07T12:17:59.302Z,42.23
2018-12-07T12:19:08.483Z,41.94
2018-12-07T12:20:17.929Z,42.23
2018-12-07T12:21:27.618Z,42.23
2018-12-07T12:22:37.084Z,42.42
2018-12-07T12:23:53.372Z,42.23
2018-12-07T12:25:03.084Z,41.94
2018-12-07T12:26:12.826Z,42.23
2018-12-07T12:27:22.270Z,41.94
2018-12-07T12:28:31.722Z,41.94
2018-12-07T12:29:41.186Z,42.32
2018-12-07T12:30:50.383Z,41.94
2018-12-07T12:31:59.060Z,42.13
2018-12-07T12:33:08.484Z,42.13
2018-12-07T12:34:18.438Z,42.13
2018-12-07T12:35:27.870Z,42.42
2018-12-07T12:36:36.551Z,42.23
2018-12-07T12:37:45.738Z,41.84
2018-12-07T12:38:55.431Z,42.13
2018-12-07T12:40:04.613Z,42.32
2018-12-07T12:41:14.140Z,41.94
2018-12-07T12:42:25.658Z,42.13
2018-12-07T12:43:34.884Z,42.13
2018-12-07T12:44:44.350Z,42.13
2018-12-07T12:45:54.074Z,42.13
2018-12-07T12:47:03.280Z,41.94
2018-12-07T12:48:13.203Z,42.13
2018-12-07T12:49:22.484Z,42.13
2018-12-07T12:50:31.920Z,41.94
2018-12-07T12:51:40.871Z,41.94
2018-12-07T12:52:49.808Z,42.13
2018-12-07T12:53:59.005Z,41.94
2018-12-07T12:55:08.441Z,41.94
2018-12-07T12:56:18.396Z,41.94
2018-12-07T12:57:27.335Z,42.13
2018-12-07T12:58:36.268Z,42.13
2018-12-07T12:59:45.707Z,42.13
2018-12-07T13:00:54.661Z,42.13
2018-12-07T13:02:04.374Z,41.94
2018-12-07T13:03:14.095Z,42.32
2018-12-07T13:04:23.046Z,42.23
2018-12-07T13:05:32.236Z,42.23
2018-12-07T13:06:41.445Z,42.13
2018-12-07T13:07:50.423Z,42.23
2018-12-07T13:08:59.611Z,42.13
2018-12-07T13:10:09.048Z,42.13
2018-12-07T13:11:18.248Z,42.32
2018-12-07T13:12:28.182Z,42.32
2018-12-07T13:13:37.107Z,42.32
2018-12-07T13:14:46.363Z,42.23
2018-12-07T13:15:56.054Z,42.32
2018-12-07T13:17:05.770Z,42.32
2018-12-07T13:18:15.243Z,42.32
2018-12-07T13:19:23.984Z,42.23
2018-12-07T13:20:33.192Z,42.32
2018-12-07T13:21:42.378Z,42.32
2018-12-07T13:22:51.822Z,42.32
2018-12-07T13:24:00.787Z,42.32
2018-12-07T13:25:10.017Z,42.32
2018-12-07T13:26:18.944Z,42.32
2018-12-07T13:27:28.623Z,42.32
2018-12-07T13:28:38.075Z,42.32
2018-12-07T13:29:47.280Z,42.32
2018-12-07T13:30:56.453Z,42.32
2018-12-07T13:32:05.893Z,42.23
2018-12-07T13:33:15.580Z,42.32
2018-12-07T13:34:24.549Z,42.32
2018-12-07T13:35:34.239Z,42.32
2018-12-07T13:36:43.424Z,42.23
2018-12-07T13:37:52.868Z,42.23
2018-12-07T13:39:01.829Z,42.32
2018-12-07T13:40:11.727Z,42.32
2018-12-07T13:41:21.809Z,42.32
2018-12-07T13:42:33.130Z,42.32
2018-12-07T13:43:43.340Z,42.32
2018-12-07T13:44:53.080Z,42.23
2018-12-07T13:46:03.059Z,42.32
2018-12-07T13:47:13.514Z,42.52
2018-12-07T13:48:23.465Z,42.23
2018-12-07T13:49:34.072Z,42.32
2018-12-07T13:50:44.400Z,42.23
2018-12-07T13:51:54.307Z,42.23
2018-12-07T13:53:04.833Z,42.32
2018-12-07T13:54:14.831Z,42.23
2018-12-07T13:55:25.164Z,42.32
2018-12-07T13:56:35.567Z,42.13
2018-12-07T13:57:45.200Z,42.32
2018-12-07T13:58:54.375Z,42.23
2018-12-07T14:00:04.691Z,42.03
2018-12-07T14:01:15.154Z,42.03
2018-12-07T14:02:25.581Z,42.13
2018-12-07T14:03:36.164Z,42.32
2018-12-07T14:04:46.446Z,42.23
2018-12-07T14:05:56.876Z,42.32
2018-12-07T14:07:06.778Z,42.32
2018-12-07T14:08:16.819Z,42.23
2018-12-07T14:09:27.437Z,42.32
2018-12-07T14:10:37.233Z,42.23
2018-12-07T14:11:47.305Z,42.23
2018-12-07T14:12:58.850Z,41.94
2018-12-07T14:14:08.938Z,42.03
2018-12-07T14:15:19.120Z,42.23
2018-12-07T14:16:29.479Z,42.13
2018-12-07T14:17:39.007Z,42.23
2018-12-07T14:18:49.556Z,42.23
2018-12-07T14:19:59.867Z,42.03
2018-12-07T14:21:09.941Z,42.23
2018-12-07T14:22:20.493Z,42.03
2018-12-07T14:23:30.589Z,42.23
2018-12-07T14:24:41.431Z,42.03
2018-12-07T14:25:51.561Z,42.23
2018-12-07T14:27:02.229Z,42.03
2018-12-07T14:28:12.837Z,42.03
2018-12-07T14:29:23.778Z,42.03
2018-12-07T14:30:36.159Z,41.94
2018-12-07T14:31:46.915Z,42.13
2018-12-07T14:32:57.252Z,42.13
2018-12-07T14:34:07.306Z,42.03
2018-12-07T14:35:16.912Z,42.03
2018-12-07T14:36:26.862Z,42.23
2018-12-07T14:37:37.267Z,42.13
2018-12-07T14:38:47.101Z,41.94
2018-12-07T14:39:57.450Z,42.13
2018-12-07T14:41:07.729Z,42.23
2018-12-07T14:42:17.610Z,42.03
2018-12-07T14:43:27.667Z,42.03
2018-12-07T14:44:37.961Z,42.03
2018-12-07T14:45:48.070Z,42.13
2018-12-07T14:46:57.794Z,42.03
2018-12-07T14:48:08.391Z,42.23
2018-12-07T14:49:18.282Z,42.03
2018-12-07T14:50:28.295Z,42.23
2018-12-07T14:51:38.548Z,42.03
2018-12-07T14:52:49.098Z,42.23
2018-12-07T14:53:59.339Z,42.23
2018-12-07T14:55:09.847Z,42.03
2018-12-07T14:56:20.879Z,42.03
2018-12-07T14:57:30.907Z,42.23